sensor_id;sensor_type;location;lat;lon;timestamp;P1;durP1;ratioP1;P2;durP2;ratioP2
41903;SDS011;27586;51.124;4.182;2022-12-18T00:01:03;61.50;;;;;
41903;SDS011;27586;51.124;4.182;2022-12-18T00:03:38;57.90;;;32.93;;
41903;SDS011;27586;51.124;4.182;2022-12-18T00:06:06;55.57;;;30.07;;
41903;SDS011;27586;51.124;4.182;2022-12-18T00:08:33;55.30;;;29.40;;
41903;SDS011;27586;51.124;4.182;2022-12-18T00:11:06;56.73;;;29.20;;
41903;SDS011;27586;51.124;4.182;2022-12-18T00:13:35;60.33;;;29.87;;
41903;SDS011;27586;51.124;4.182;2022-12-18T00:16:02;59.03;;;30.53;;
41903;SDS011;27586;51.124;4.182;2022-12-18T00:18:29;54.27;;;30.23;;
41903;SDS011;27586;51.124;4.182;2022-12-18T00:20:58;56.27;;;30.27;;
41903;SDS011;27586;51.124;4.182;2022-12-18T00:23:29;61.50;;;30.63;;
41903;SDS011;27586;51.124;4.182;2022-12-18T00:25:59;55.07;;;30.33;;
41903;SDS011;27586;51.124;4.182;2022-12-18T00:28:26;57.73;;;30.30;;
41903;SDS011;27586;51.124;4.182;2022-12-18T00:30:59;55.50;;;28.80;;
41903;SDS011;27586;51.124;4.182;2022-12-18T00:33:29;53.53;;;28.40;;
41903;SDS011;27586;51.124;4.182;2022-12-18T00:35:55;57.63;;;29.10;;
41903;SDS011;27586;51.124;4.182;2022-12-18T00:38:29;56.60;;;29.93;;
41903;SDS011;27586;51.124;4.182;2022-12-18T00:40:55;55.93;;;28.90;;
41903;SDS011;27586;51.124;4.182;2022-12-18T00:43:20;54.17;;;28.57;;
41903;SDS011;27586;51.124;4.182;2022-12-18T00:45:46;56.83;;;29.43;;
41903;SDS011;27586;51.124;4.182;2022-12-18T00:48:12;54.13;;;29.50;;
41903;SDS011;27586;51.124;4.182;2022-12-18T00:50:37;57.10;;;30.77;;
41903;SDS011;27586;51.124;4.182;2022-12-18T00:53:03;57.27;;;30.20;;
41903;SDS011;27586;51.124;4.182;2022-12-18T00:55:29;54.90;;;30.27;;
41903;SDS011;27586;51.124;4.182;2022-12-18T00:57:55;54.47;;;30.30;;
41903;SDS011;27586;51.124;4.182;2022-12-18T01:00:21;55.63;;;30.10;;
41903;SDS011;27586;51.124;4.182;2022-12-18T01:02:47;55.83;;;29.80;;
41903;SDS011;27586;51.124;4.182;2022-12-18T01:05:13;52.37;;;29.13;;
41903;SDS011;27586;51.124;4.182;2022-12-18T01:07:39;57.40;;;29.97;;
41903;SDS011;27586;51.124;4.182;2022-12-18T01:10:06;56.47;;;29.93;;
41903;SDS011;27586;51.124;4.182;2022-12-18T01:12:33;51.93;;;29.50;;
41903;SDS011;27586;51.124;4.182;2022-12-18T01:14:59;61.10;;;31.60;;
41903;SDS011;27586;51.124;4.182;2022-12-18T01:17:24;56.80;;;29.10;;
41903;SDS011;27586;51.124;4.182;2022-12-18T01:19:50;55.83;;;30.13;;
41903;SDS011;27586;51.124;4.182;2022-12-18T01:22:16;56.50;;;29.00;;
41903;SDS011;27586;51.124;4.182;2022-12-18T01:24:41;57.07;;;30.07;;
41903;SDS011;27586;51.124;4.182;2022-12-18T01:27:07;54.73;;;30.53;;
41903;SDS011;27586;51.124;4.182;2022-12-18T01:29:32;53.50;;;27.90;;
41903;SDS011;27586;51.124;4.182;2022-12-18T01:31:58;53.63;;;29.03;;
41903;SDS011;27586;51.124;4.182;2022-12-18T01:34:24;52.20;;;28.93;;
41903;SDS011;27586;51.124;4.182;2022-12-18T01:36:49;53.20;;;27.23;;
41903;SDS011;27586;51.124;4.182;2022-12-18T01:39:17;50.43;;;26.97;;
41903;SDS011;27586;51.124;4.182;2022-12-18T01:41:44;49.37;;;27.33;;
41903;SDS011;27586;51.124;4.182;2022-12-18T01:49:53;56.23;;;29.93;;
41903;SDS011;27586;51.124;4.182;2022-12-18T01:52:20;57.97;;;29.27;;
41903;SDS011;27586;51.124;4.182;2022-12-18T01:54:47;50.80;;;28.97;;
41903;SDS011;27586;51.124;4.182;2022-12-18T01:57:15;51.80;;;27.80;;
41903;SDS011;27586;51.124;4.182;2022-12-18T01:59:42;55.97;;;29.13;;
41903;SDS011;27586;51.124;4.182;2022-12-18T02:02:12;53.83;;;29.73;;
41903;SDS011;27586;51.124;4.182;2022-12-18T02:04:39;54.60;;;29.53;;
41903;SDS011;27586;51.124;4.182;2022-12-18T02:07:20;55.80;;;28.27;;
41903;SDS011;27586;51.124;4.182;2022-12-18T02:12:55;52.70;;;28.23;;
41903;SDS011;27586;51.124;4.182;2022-12-18T02:15:34;56.30;;;29.60;;
41903;SDS011;27586;51.124;4.182;2022-12-18T02:18:11;52.80;;;29.90;;
41903;SDS011;27586;51.124;4.182;2022-12-18T02:20:45;56.80;;;29.90;;
41903;SDS011;27586;51.124;4.182;2022-12-18T02:28:31;50.33;;;27.23;;
41903;SDS011;27586;51.124;4.182;2022-12-18T02:31:01;52.77;;;28.37;;
41903;SDS011;27586;51.124;4.182;2022-12-18T02:33:31;52.13;;;28.57;;
41903;SDS011;27586;51.124;4.182;2022-12-18T02:35:59;51.23;;;29.10;;
41903;SDS011;27586;51.124;4.182;2022-12-18T02:38:26;53.27;;;28.87;;
41903;SDS011;27586;51.124;4.182;2022-12-18T02:40:56;51.70;;;28.40;;
41903;SDS011;27586;51.124;4.182;2022-12-18T02:43:22;53.80;;;28.47;;
41903;SDS011;27586;51.124;4.182;2022-12-18T02:45:55;50.10;;;26.23;;
41903;SDS011;27586;51.124;4.182;2022-12-18T02:48:24;48.43;;;27.03;;
41903;SDS011;27586;51.124;4.182;2022-12-18T02:51:17;47.40;;;26.40;;
41903;SDS011;27586;51.124;4.182;2022-12-18T02:53:45;47.13;;;26.80;;
41903;SDS011;27586;51.124;4.182;2022-12-18T02:56:26;47.57;;;26.20;;
41903;SDS011;27586;51.124;4.182;2022-12-18T02:58:59;49.57;;;26.83;;
41903;SDS011;27586;51.124;4.182;2022-12-18T03:01:40;48.37;;;25.83;;
41903;SDS011;27586;51.124;4.182;2022-12-18T03:04:18;54.20;;;26.73;;
41903;SDS011;27586;51.124;4.182;2022-12-18T03:06:53;42.53;;;25.77;;
41903;SDS011;27586;51.124;4.182;2022-12-18T03:09:24;52.37;;;26.27;;
41903;SDS011;27586;51.124;4.182;2022-12-18T03:12:04;46.43;;;24.47;;
41903;SDS011;27586;51.124;4.182;2022-12-18T03:15:35;44.83;;;25.37;;
41903;SDS011;27586;51.124;4.182;2022-12-18T03:17:41;45.10;;;24.57;;
41903;SDS011;27586;51.124;4.182;2022-12-18T03:20:12;46.00;;;24.87;;
41903;SDS011;27586;51.124;4.182;2022-12-18T03:22:41;42.83;;;25.13;;
41903;SDS011;27586;51.124;4.182;2022-12-18T03:25:10;45.23;;;25.10;;
41903;SDS011;27586;51.124;4.182;2022-12-18T03:27:38;42.83;;;24.47;;
41903;SDS011;27586;51.124;4.182;2022-12-18T03:30:11;42.33;;;24.43;;
41903;SDS011;27586;51.124;4.182;2022-12-18T03:32:43;44.60;;;23.67;;
41903;SDS011;27586;51.124;4.182;2022-12-18T03:35:29;46.60;;;25.27;;
41903;SDS011;27586;51.124;4.182;2022-12-18T03:37:58;44.17;;;24.80;;
41903;SDS011;27586;51.124;4.182;2022-12-18T03:40:26;42.47;;;24.53;;
41903;SDS011;27586;51.124;4.182;2022-12-18T03:43:13;38.43;;;23.43;;
41903;SDS011;27586;51.124;4.182;2022-12-18T03:46:05;40.80;;;24.47;;
41903;SDS011;27586;51.124;4.182;2022-12-18T03:48:39;46.00;;;24.70;;
41903;SDS011;27586;51.124;4.182;2022-12-18T03:51:24;40.57;;;23.87;;
41903;SDS011;27586;51.124;4.182;2022-12-18T03:54:00;45.80;;;24.40;;
41903;SDS011;27586;51.124;4.182;2022-12-18T03:56:29;40.97;;;22.53;;
41903;SDS011;27586;51.124;4.182;2022-12-18T03:58:59;42.00;;;24.00;;
41903;SDS011;27586;51.124;4.182;2022-12-18T04:01:30;42.43;;;22.67;;
41903;SDS011;27586;51.124;4.182;2022-12-18T04:03:59;40.23;;;22.73;;
41903;SDS011;27586;51.124;4.182;2022-12-18T04:06:27;35.90;;;21.73;;
41903;SDS011;27586;51.124;4.182;2022-12-18T04:08:54;42.60;;;22.57;;
41903;SDS011;27586;51.124;4.182;2022-12-18T04:11:21;38.17;;;21.87;;
41903;SDS011;27586;51.124;4.182;2022-12-18T04:13:47;38.67;;;21.13;;
41903;SDS011;27586;51.124;4.182;2022-12-18T04:16:12;39.27;;;21.37;;
41903;SDS011;27586;51.124;4.182;2022-12-18T04:18:38;38.37;;;21.73;;
41903;SDS011;27586;51.124;4.182;2022-12-18T04:21:03;35.90;;;19.97;;
41903;SDS011;27586;51.124;4.182;2022-12-18T04:23:29;37.83;;;21.03;;
41903;SDS011;27586;51.124;4.182;2022-12-18T04:25:55;37.17;;;20.97;;
41903;SDS011;27586;51.124;4.182;2022-12-18T04:28:20;36.80;;;21.40;;
41903;SDS011;27586;51.124;4.182;2022-12-18T04:30:46;38.90;;;21.00;;
41903;SDS011;27586;51.124;4.182;2022-12-18T04:33:13;37.33;;;21.93;;
41903;SDS011;27586;51.124;4.182;2022-12-18T04:35:42;38.27;;;20.97;;
41903;SDS011;27586;51.124;4.182;2022-12-18T04:38:08;35.40;;;20.43;;
41903;SDS011;27586;51.124;4.182;2022-12-18T04:40:37;36.67;;;20.23;;
41903;SDS011;27586;51.124;4.182;2022-12-18T04:43:04;35.73;;;20.57;;
41903;SDS011;27586;51.124;4.182;2022-12-18T04:45:30;33.70;;;20.03;;
41903;SDS011;27586;51.124;4.182;2022-12-18T04:47:57;39.30;;;20.70;;
41903;SDS011;27586;51.124;4.182;2022-12-18T04:50:24;35.90;;;21.50;;
41903;SDS011;27586;51.124;4.182;2022-12-18T04:52:49;35.10;;;21.20;;
41903;SDS011;27586;51.124;4.182;2022-12-18T04:55:15;37.90;;;22.83;;
41903;SDS011;27586;51.124;4.182;2022-12-18T04:57:41;35.10;;;20.13;;
41903;SDS011;27586;51.124;4.182;2022-12-18T05:00:06;35.63;;;20.80;;
41903;SDS011;27586;51.124;4.182;2022-12-18T05:02:32;36.80;;;21.33;;
41903;SDS011;27586;51.124;4.182;2022-12-18T05:04:58;35.00;;;20.50;;
41903;SDS011;27586;51.124;4.182;2022-12-18T05:07:24;37.77;;;21.67;;
41903;SDS011;27586;51.124;4.182;2022-12-18T05:09:52;35.07;;;21.40;;
41903;SDS011;27586;51.124;4.182;2022-12-18T05:12:18;34.90;;;21.23;;
41903;SDS011;27586;51.124;4.182;2022-12-18T05:14:44;36.87;;;22.30;;
41903;SDS011;27586;51.124;4.182;2022-12-18T05:17:09;38.40;;;21.83;;
41903;SDS011;27586;51.124;4.182;2022-12-18T05:19:35;37.17;;;21.90;;
41903;SDS011;27586;51.124;4.182;2022-12-18T05:22:01;36.23;;;20.43;;
41903;SDS011;27586;51.124;4.182;2022-12-18T05:24:26;32.87;;;20.00;;
41903;SDS011;27586;51.124;4.182;2022-12-18T05:26:52;37.93;;;20.27;;
41903;SDS011;27586;51.124;4.182;2022-12-18T05:29:18;37.03;;;20.40;;
41903;SDS011;27586;51.124;4.182;2022-12-18T05:31:43;33.77;;;20.17;;
41903;SDS011;27586;51.124;4.182;2022-12-18T05:34:09;32.47;;;19.60;;
41903;SDS011;27586;51.124;4.182;2022-12-18T05:36:35;33.20;;;19.77;;
41903;SDS011;27586;51.124;4.182;2022-12-18T05:39:00;34.43;;;19.60;;
41903;SDS011;27586;51.124;4.182;2022-12-18T05:41:26;32.80;;;18.73;;
41903;SDS011;27586;51.124;4.182;2022-12-18T05:43:52;30.10;;;17.53;;
41903;SDS011;27586;51.124;4.182;2022-12-18T05:46:18;34.77;;;17.83;;
41903;SDS011;27586;51.124;4.182;2022-12-18T05:48:43;34.80;;;19.17;;
41903;SDS011;27586;51.124;4.182;2022-12-18T05:51:11;31.60;;;18.40;;
41903;SDS011;27586;51.124;4.182;2022-12-18T05:53:39;32.10;;;18.47;;
41903;SDS011;27586;51.124;4.182;2022-12-18T05:56:06;34.50;;;18.93;;
41903;SDS011;27586;51.124;4.182;2022-12-18T05:58:33;31.60;;;18.10;;
41903;SDS011;27586;51.124;4.182;2022-12-18T06:01:05;31.60;;;18.93;;
41903;SDS011;27586;51.124;4.182;2022-12-18T06:03:33;32.93;;;18.97;;
41903;SDS011;27586;51.124;4.182;2022-12-18T06:05:59;29.77;;;18.13;;
41903;SDS011;27586;51.124;4.182;2022-12-18T06:08:25;28.97;;;18.07;;
41903;SDS011;27586;51.124;4.182;2022-12-18T06:10:51;30.93;;;18.30;;
41903;SDS011;27586;51.124;4.182;2022-12-18T06:13:20;30.70;;;18.03;;
41903;SDS011;27586;51.124;4.182;2022-12-18T06:15:46;31.97;;;18.57;;
41903;SDS011;27586;51.124;4.182;2022-12-18T06:18:11;31.40;;;18.97;;
41903;SDS011;27586;51.124;4.182;2022-12-18T06:20:37;29.77;;;17.73;;
41903;SDS011;27586;51.124;4.182;2022-12-18T06:23:05;29.73;;;18.17;;
41903;SDS011;27586;51.124;4.182;2022-12-18T06:25:31;30.67;;;18.40;;
41903;SDS011;27586;51.124;4.182;2022-12-18T06:27:57;30.50;;;17.90;;
41903;SDS011;27586;51.124;4.182;2022-12-18T06:30:24;30.37;;;18.07;;
41903;SDS011;27586;51.124;4.182;2022-12-18T06:32:49;30.77;;;18.20;;
41903;SDS011;27586;51.124;4.182;2022-12-18T06:35:15;29.67;;;17.10;;
41903;SDS011;27586;51.124;4.182;2022-12-18T06:37:41;30.90;;;17.90;;
41903;SDS011;27586;51.124;4.182;2022-12-18T06:40:07;29.47;;;18.30;;
41903;SDS011;27586;51.124;4.182;2022-12-18T06:42:33;29.40;;;17.70;;
41903;SDS011;27586;51.124;4.182;2022-12-18T06:44:59;28.13;;;17.97;;
41903;SDS011;27586;51.124;4.182;2022-12-18T06:47:24;30.10;;;18.33;;
41903;SDS011;27586;51.124;4.182;2022-12-18T06:49:50;38.27;;;25.23;;
41903;SDS011;27586;51.124;4.182;2022-12-18T06:52:15;30.17;;;19.00;;
41903;SDS011;27586;51.124;4.182;2022-12-18T06:54:41;29.43;;;18.20;;
41903;SDS011;27586;51.124;4.182;2022-12-18T06:57:07;32.53;;;18.60;;
41903;SDS011;27586;51.124;4.182;2022-12-18T06:59:32;27.80;;;17.53;;
41903;SDS011;27586;51.124;4.182;2022-12-18T07:01:58;33.27;;;18.80;;
41903;SDS011;27586;51.124;4.182;2022-12-18T07:04:27;30.93;;;18.03;;
41903;SDS011;27586;51.124;4.182;2022-12-18T07:06:54;29.60;;;18.33;;
41903;SDS011;27586;51.124;4.182;2022-12-18T07:09:20;30.10;;;18.77;;
41903;SDS011;27586;51.124;4.182;2022-12-18T07:11:46;30.40;;;17.73;;
41903;SDS011;27586;51.124;4.182;2022-12-18T07:14:11;33.70;;;17.83;;
41903;SDS011;27586;51.124;4.182;2022-12-18T07:16:40;29.33;;;17.23;;
41903;SDS011;27586;51.124;4.182;2022-12-18T07:19:05;31.83;;;17.50;;
41903;SDS011;27586;51.124;4.182;2022-12-18T07:21:31;26.90;;;17.17;;
41903;SDS011;27586;51.124;4.182;2022-12-18T07:23:57;28.67;;;16.83;;
41903;SDS011;27586;51.124;4.182;2022-12-18T07:26:22;27.70;;;16.63;;
41903;SDS011;27586;51.124;4.182;2022-12-18T07:28:48;35.60;;;20.70;;
41903;SDS011;27586;51.124;4.182;2022-12-18T07:31:18;28.23;;;17.83;;
41903;SDS011;27586;51.124;4.182;2022-12-18T07:33:46;31.37;;;17.83;;
41903;SDS011;27586;51.124;4.182;2022-12-18T07:36:12;72.87;;;52.43;;
41903;SDS011;27586;51.124;4.182;2022-12-18T07:38:39;39.37;;;27.50;;
41903;SDS011;27586;51.124;4.182;2022-12-18T07:41:08;32.47;;;19.73;;
41903;SDS011;27586;51.124;4.182;2022-12-18T07:43:36;29.47;;;17.77;;
41903;SDS011;27586;51.124;4.182;2022-12-18T07:46:03;25.77;;;15.37;;
41903;SDS011;27586;51.124;4.182;2022-12-18T07:48:29;28.67;;;16.00;;
41903;SDS011;27586;51.124;4.182;2022-12-18T07:50:59;26.10;;;16.33;;
41903;SDS011;27586;51.124;4.182;2022-12-18T07:53:29;27.53;;;16.63;;
41903;SDS011;27586;51.124;4.182;2022-12-18T07:55:55;27.00;;;16.33;;
41903;SDS011;27586;51.124;4.182;2022-12-18T07:58:22;26.33;;;16.07;;
41903;SDS011;27586;51.124;4.182;2022-12-18T08:00:48;24.37;;;15.30;;
41903;SDS011;27586;51.124;4.182;2022-12-18T08:03:13;26.93;;;15.97;;
41903;SDS011;27586;51.124;4.182;2022-12-18T08:05:39;25.03;;;14.90;;
41903;SDS011;27586;51.124;4.182;2022-12-18T08:08:04;24.33;;;15.40;;
41903;SDS011;27586;51.124;4.182;2022-12-18T08:10:30;25.17;;;15.67;;
41903;SDS011;27586;51.124;4.182;2022-12-18T08:12:56;27.13;;;16.30;;
41903;SDS011;27586;51.124;4.182;2022-12-18T08:15:21;25.20;;;15.03;;
41903;SDS011;27586;51.124;4.182;2022-12-18T08:17:47;25.80;;;15.83;;
41903;SDS011;27586;51.124;4.182;2022-12-18T08:20:13;26.17;;;16.03;;
41903;SDS011;27586;51.124;4.182;2022-12-18T08:22:43;29.23;;;15.43;;
41903;SDS011;27586;51.124;4.182;2022-12-18T08:25:09;24.77;;;14.93;;
41903;SDS011;27586;51.124;4.182;2022-12-18T08:27:35;24.47;;;15.43;;
41903;SDS011;27586;51.124;4.182;2022-12-18T08:30:01;26.87;;;16.03;;
41903;SDS011;27586;51.124;4.182;2022-12-18T08:32:27;26.40;;;16.50;;
41903;SDS011;27586;51.124;4.182;2022-12-18T08:34:53;22.73;;;14.93;;
41903;SDS011;27586;51.124;4.182;2022-12-18T08:37:21;24.07;;;14.83;;
41903;SDS011;27586;51.124;4.182;2022-12-18T08:39:47;26.37;;;15.07;;
41903;SDS011;27586;51.124;4.182;2022-12-18T08:42:12;23.97;;;14.33;;
41903;SDS011;27586;51.124;4.182;2022-12-18T08:44:56;23.73;;;14.03;;
41903;SDS011;27586;51.124;4.182;2022-12-18T08:47:22;23.13;;;15.20;;
41903;SDS011;27586;51.124;4.182;2022-12-18T08:49:48;23.43;;;14.70;;
41903;SDS011;27586;51.124;4.182;2022-12-18T08:52:13;24.93;;;14.20;;
41903;SDS011;27586;51.124;4.182;2022-12-18T08:54:39;24.90;;;14.73;;
41903;SDS011;27586;51.124;4.182;2022-12-18T08:57:04;23.97;;;15.00;;
41903;SDS011;27586;51.124;4.182;2022-12-18T08:59:30;24.93;;;15.23;;
41903;SDS011;27586;51.124;4.182;2022-12-18T09:01:56;23.07;;;13.77;;
41903;SDS011;27586;51.124;4.182;2022-12-18T09:04:22;21.47;;;14.10;;
41903;SDS011;27586;51.124;4.182;2022-12-18T09:06:47;22.37;;;13.83;;
41903;SDS011;27586;51.124;4.182;2022-12-18T09:09:13;22.03;;;14.33;;
41903;SDS011;27586;51.124;4.182;2022-12-18T09:11:39;25.03;;;13.67;;
41903;SDS011;27586;51.124;4.182;2022-12-18T09:14:04;24.40;;;14.50;;
41903;SDS011;27586;51.124;4.182;2022-12-18T09:16:30;25.93;;;16.03;;
41903;SDS011;27586;51.124;4.182;2022-12-18T09:18:56;25.07;;;14.80;;
41903;SDS011;27586;51.124;4.182;2022-12-18T09:21:30;22.90;;;14.17;;
41903;SDS011;27586;51.124;4.182;2022-12-18T09:23:57;19.00;;;13.63;;
41903;SDS011;27586;51.124;4.182;2022-12-18T09:26:24;19.17;;;13.27;;
41903;SDS011;27586;51.124;4.182;2022-12-18T09:28:50;19.83;;;13.37;;
41903;SDS011;27586;51.124;4.182;2022-12-18T09:31:17;18.40;;;12.87;;
41903;SDS011;27586;51.124;4.182;2022-12-18T09:33:44;20.07;;;13.33;;
41903;SDS011;27586;51.124;4.182;2022-12-18T09:36:11;22.10;;;12.80;;
41903;SDS011;27586;51.124;4.182;2022-12-18T09:38:38;21.60;;;14.03;;
41903;SDS011;27586;51.124;4.182;2022-12-18T09:43:57;19.03;;;12.57;;
41903;SDS011;27586;51.124;4.182;2022-12-18T09:46:32;20.93;;;11.93;;
41903;SDS011;27586;51.124;4.182;2022-12-18T09:49:02;18.33;;;12.50;;
41903;SDS011;27586;51.124;4.182;2022-12-18T09:51:39;18.13;;;11.50;;
41903;SDS011;27586;51.124;4.182;2022-12-18T09:57:26;17.87;;;11.43;;
41903;SDS011;27586;51.124;4.182;2022-12-18T09:59:55;17.83;;;11.87;;
41903;SDS011;27586;51.124;4.182;2022-12-18T10:02:26;17.80;;;11.57;;
41903;SDS011;27586;51.124;4.182;2022-12-18T10:05:03;16.43;;;11.17;;
41903;SDS011;27586;51.124;4.182;2022-12-18T10:07:41;18.80;;;12.13;;
41903;SDS011;27586;51.124;4.182;2022-12-18T10:10:39;16.90;;;11.10;;
41903;SDS011;27586;51.124;4.182;2022-12-18T10:13:24;18.40;;;11.57;;
41903;SDS011;27586;51.124;4.182;2022-12-18T10:16:17;16.87;;;11.97;;
41903;SDS011;27586;51.124;4.182;2022-12-18T10:19:10;17.20;;;11.43;;
41903;SDS011;27586;51.124;4.182;2022-12-18T10:21:43;19.67;;;12.23;;
41903;SDS011;27586;51.124;4.182;2022-12-18T10:26:47;26.53;;;15.70;;
41903;SDS011;27586;51.124;4.182;2022-12-18T10:29:14;26.80;;;16.40;;
41903;SDS011;27586;51.124;4.182;2022-12-18T10:31:41;17.20;;;13.03;;
41903;SDS011;27586;51.124;4.182;2022-12-18T10:34:14;19.33;;;14.13;;
41903;SDS011;27586;51.124;4.182;2022-12-18T10:36:40;20.63;;;14.53;;
41903;SDS011;27586;51.124;4.182;2022-12-18T10:39:17;20.73;;;13.63;;
41903;SDS011;27586;51.124;4.182;2022-12-18T10:41:45;18.93;;;13.17;;
41903;SDS011;27586;51.124;4.182;2022-12-18T10:44:23;18.57;;;13.17;;
41903;SDS011;27586;51.124;4.182;2022-12-18T10:46:53;21.20;;;13.13;;
41903;SDS011;27586;51.124;4.182;2022-12-18T10:49:24;18.70;;;11.87;;
41903;SDS011;27586;51.124;4.182;2022-12-18T10:52:03;16.50;;;11.30;;
41903;SDS011;27586;51.124;4.182;2022-12-18T10:54:47;21.37;;;13.77;;
41903;SDS011;27586;51.124;4.182;2022-12-18T10:57:37;17.37;;;13.00;;
41903;SDS011;27586;51.124;4.182;2022-12-18T11:02:52;19.03;;;12.07;;
41903;SDS011;27586;51.124;4.182;2022-12-18T11:07:57;15.40;;;11.50;;
41903;SDS011;27586;51.124;4.182;2022-12-18T11:10:31;17.70;;;12.30;;
41903;SDS011;27586;51.124;4.182;2022-12-18T11:13:12;17.53;;;12.07;;
41903;SDS011;27586;51.124;4.182;2022-12-18T11:15:57;15.83;;;11.13;;
41903;SDS011;27586;51.124;4.182;2022-12-18T11:18:30;16.43;;;11.27;;
41903;SDS011;27586;51.124;4.182;2022-12-18T11:21:09;16.47;;;11.50;;
41903;SDS011;27586;51.124;4.182;2022-12-18T11:23:37;16.87;;;11.27;;
41903;SDS011;27586;51.124;4.182;2022-12-18T11:26:14;17.03;;;11.17;;
41903;SDS011;27586;51.124;4.182;2022-12-18T11:28:50;15.13;;;11.20;;
41903;SDS011;27586;51.124;4.182;2022-12-18T11:31:33;18.20;;;13.13;;
41903;SDS011;27586;51.124;4.182;2022-12-18T11:34:17;21.67;;;13.87;;
41903;SDS011;27586;51.124;4.182;2022-12-18T11:36:49;19.93;;;14.07;;
41903;SDS011;27586;51.124;4.182;2022-12-18T11:42:27;25.97;;;18.40;;
41903;SDS011;27586;51.124;4.182;2022-12-18T11:50:28;21.07;;;13.93;;
41903;SDS011;27586;51.124;4.182;2022-12-18T11:53:10;31.87;;;19.97;;
41903;SDS011;27586;51.124;4.182;2022-12-18T11:55:38;28.67;;;18.90;;
41903;SDS011;27586;51.124;4.182;2022-12-18T12:00:43;23.27;;;15.87;;
41903;SDS011;27586;51.124;4.182;2022-12-18T12:03:24;17.60;;;12.77;;
41903;SDS011;27586;51.124;4.182;2022-12-18T12:06:31;18.87;;;12.07;;
41903;SDS011;27586;51.124;4.182;2022-12-18T12:25:38;20.87;;;14.33;;
41903;SDS011;27586;51.124;4.182;2022-12-18T12:28:14;17.90;;;13.47;;
41903;SDS011;27586;51.124;4.182;2022-12-18T12:36:02;16.47;;;12.43;;
41903;SDS011;27586;51.124;4.182;2022-12-18T12:39:01;17.50;;;12.93;;
41903;SDS011;27586;51.124;4.182;2022-12-18T12:41:31;16.73;;;12.27;;
41903;SDS011;27586;51.124;4.182;2022-12-18T12:44:39;18.77;;;13.30;;
41903;SDS011;27586;51.124;4.182;2022-12-18T12:47:16;14.83;;;10.97;;
41903;SDS011;27586;51.124;4.182;2022-12-18T12:49:46;17.67;;;12.83;;
41903;SDS011;27586;51.124;4.182;2022-12-18T12:52:17;16.70;;;11.90;;
41903;SDS011;27586;51.124;4.182;2022-12-18T12:54:52;18.13;;;12.47;;
41903;SDS011;27586;51.124;4.182;2022-12-18T12:57:23;18.67;;;13.13;;
41903;SDS011;27586;51.124;4.182;2022-12-18T13:00:03;19.80;;;12.53;;
41903;SDS011;27586;51.124;4.182;2022-12-18T13:02:35;24.37;;;16.57;;
41903;SDS011;27586;51.124;4.182;2022-12-18T13:05:24;20.13;;;13.13;;
41903;SDS011;27586;51.124;4.182;2022-12-18T13:08:11;20.53;;;14.60;;
41903;SDS011;27586;51.124;4.182;2022-12-18T13:10:46;17.63;;;13.77;;
41903;SDS011;27586;51.124;4.182;2022-12-18T13:13:13;23.03;;;15.97;;
41903;SDS011;27586;51.124;4.182;2022-12-18T13:15:47;20.87;;;15.17;;
41903;SDS011;27586;51.124;4.182;2022-12-18T13:18:28;18.50;;;13.43;;
41903;SDS011;27586;51.124;4.182;2022-12-18T13:26:33;22.43;;;15.37;;
41903;SDS011;27586;51.124;4.182;2022-12-18T13:31:12;29.90;;;21.80;;
41903;SDS011;27586;51.124;4.182;2022-12-18T13:38:40;16.57;;;13.80;;
41903;SDS011;27586;51.124;4.182;2022-12-18T13:43:42;20.77;;;13.60;;
41903;SDS011;27586;51.124;4.182;2022-12-18T13:46:19;18.63;;;14.10;;
41903;SDS011;27586;51.124;4.182;2022-12-18T13:48:51;17.40;;;13.23;;
41903;SDS011;27586;51.124;4.182;2022-12-18T13:51:24;22.20;;;14.77;;
41903;SDS011;27586;51.124;4.182;2022-12-18T13:53:54;29.63;;;19.73;;
41903;SDS011;27586;51.124;4.182;2022-12-18T13:56:31;25.00;;;17.50;;
41903;SDS011;27586;51.124;4.182;2022-12-18T14:01:43;34.03;;;22.50;;
41903;SDS011;27586;51.124;4.182;2022-12-18T14:04:18;26.97;;;18.13;;
41903;SDS011;27586;51.124;4.182;2022-12-18T14:06:56;27.93;;;19.23;;
41903;SDS011;27586;51.124;4.182;2022-12-18T14:09:29;32.93;;;21.00;;
41903;SDS011;27586;51.124;4.182;2022-12-18T14:11:58;39.53;;;23.93;;
41903;SDS011;27586;51.124;4.182;2022-12-18T14:14:44;68.07;;;33.67;;
41903;SDS011;27586;51.124;4.182;2022-12-18T14:17:12;49.10;;;24.40;;
41903;SDS011;27586;51.124;4.182;2022-12-18T14:19:45;53.00;;;28.70;;
41903;SDS011;27586;51.124;4.182;2022-12-18T14:22:20;64.17;;;32.60;;
41903;SDS011;27586;51.124;4.182;2022-12-18T14:28:02;48.50;;;26.87;;
41903;SDS011;27586;51.124;4.182;2022-12-18T14:30:36;43.07;;;24.77;;
41903;SDS011;27586;51.124;4.182;2022-12-18T14:35:55;35.53;;;22.27;;
41903;SDS011;27586;51.124;4.182;2022-12-18T14:38:27;35.43;;;23.43;;
41903;SDS011;27586;51.124;4.182;2022-12-18T14:40:57;38.73;;;23.30;;
41903;SDS011;27586;51.124;4.182;2022-12-18T14:43:25;38.07;;;21.63;;
41903;SDS011;27586;51.124;4.182;2022-12-18T14:45:52;28.00;;;19.87;;
41903;SDS011;27586;51.124;4.182;2022-12-18T14:50:54;28.27;;;18.47;;
41903;SDS011;27586;51.124;4.182;2022-12-18T14:53:32;24.03;;;18.83;;
41903;SDS011;27586;51.124;4.182;2022-12-18T14:56:00;28.80;;;19.93;;
41903;SDS011;27586;51.124;4.182;2022-12-18T14:58:27;26.43;;;18.00;;
41903;SDS011;27586;51.124;4.182;2022-12-18T15:00:53;30.13;;;18.03;;
41903;SDS011;27586;51.124;4.182;2022-12-18T15:03:20;25.57;;;19.00;;
41903;SDS011;27586;51.124;4.182;2022-12-18T15:05:46;28.43;;;19.23;;
41903;SDS011;27586;51.124;4.182;2022-12-18T15:08:35;30.50;;;20.37;;
41903;SDS011;27586;51.124;4.182;2022-12-18T15:11:02;29.40;;;20.23;;
41903;SDS011;27586;51.124;4.182;2022-12-18T15:13:28;26.50;;;19.33;;
41903;SDS011;27586;51.124;4.182;2022-12-18T15:15:55;26.97;;;20.43;;
41903;SDS011;27586;51.124;4.182;2022-12-18T15:18:27;27.70;;;20.47;;
41903;SDS011;27586;51.124;4.182;2022-12-18T15:20:59;27.30;;;18.77;;
41903;SDS011;27586;51.124;4.182;2022-12-18T15:26:14;26.53;;;17.97;;
41903;SDS011;27586;51.124;4.182;2022-12-18T15:28:45;25.17;;;17.93;;
41903;SDS011;27586;51.124;4.182;2022-12-18T15:33:41;24.77;;;17.77;;
41903;SDS011;27586;51.124;4.182;2022-12-18T15:36:28;27.53;;;19.17;;
41903;SDS011;27586;51.124;4.182;2022-12-18T15:39:01;26.23;;;18.93;;
41903;SDS011;27586;51.124;4.182;2022-12-18T15:41:28;28.47;;;19.20;;
41903;SDS011;27586;51.124;4.182;2022-12-18T15:43:56;26.70;;;19.33;;
41903;SDS011;27586;51.124;4.182;2022-12-18T15:46:23;29.57;;;20.83;;
41903;SDS011;27586;51.124;4.182;2022-12-18T15:48:50;29.10;;;19.87;;
41903;SDS011;27586;51.124;4.182;2022-12-18T15:51:21;28.60;;;19.73;;
41903;SDS011;27586;51.124;4.182;2022-12-18T15:54:09;26.60;;;18.13;;
41903;SDS011;27586;51.124;4.182;2022-12-18T15:56:38;30.07;;;19.97;;
41903;SDS011;27586;51.124;4.182;2022-12-18T15:59:22;28.33;;;18.87;;
41903;SDS011;27586;51.124;4.182;2022-12-18T16:01:49;28.07;;;18.83;;
41903;SDS011;27586;51.124;4.182;2022-12-18T16:04:17;32.60;;;21.03;;
41903;SDS011;27586;51.124;4.182;2022-12-18T16:06:47;33.63;;;21.70;;
41903;SDS011;27586;51.124;4.182;2022-12-18T16:09:13;37.23;;;23.37;;
41903;SDS011;27586;51.124;4.182;2022-12-18T16:11:39;35.70;;;22.77;;